createdAt,value
2018-07-26T00:02:14.674Z,101012.61
2018-07-26T00:04:43.811Z,101015.27
2018-07-26T00:07:13.117Z,101016.50
2018-07-26T00:09:42.224Z,101016.25
2018-07-26T00:12:11.311Z,101019.63
2018-07-26T00:14:40.468Z,101008.51
2018-07-26T00:17:09.695Z,101008.88
2018-07-26T00:19:38.868Z,101012.89
2018-07-26T00:22:08.423Z,101006.75
2018-07-26T00:24:38.081Z,101013.63
2018-07-26T00:27:07.690Z,101018.09
2018-07-26T00:29:36.779Z,101013.16
2018-07-26T00:32:05.919Z,101018.94
2018-07-26T00:34:35.079Z,101013.13
2018-07-26T00:37:04.373Z,101016.77
2018-07-26T00:39:33.481Z,101018.95
2018-07-26T00:42:02.580Z,101019.19
2018-07-26T00:44:31.667Z,101015.06
2018-07-26T00:47:00.895Z,101014.97
2018-07-26T00:49:30.162Z,101010.98
2018-07-26T00:51:59.278Z,101014.25
2018-07-26T00:54:28.387Z,101012.05
2018-07-26T00:56:57.582Z,101006.39
2018-07-26T00:59:26.714Z,101001.42
2018-07-26T01:01:55.940Z,101006.49
2018-07-26T01:04:25.063Z,101007.23
2018-07-26T01:06:54.174Z,101007.36
2018-07-26T01:09:23.366Z,101005.41
2018-07-26T01:11:52.559Z,100997.64
2018-07-26T01:14:21.782Z,101000.70
2018-07-26T01:16:50.886Z,101003.21
2018-07-26T01:19:20.064Z,101005.25
2018-07-26T01:21:49.302Z,101002.23
2018-07-26T01:24:18.412Z,100995.12
2018-07-26T01:26:47.503Z,100998.86
2018-07-26T01:29:19.718Z,100993.90
2018-07-26T01:31:52.897Z,100994.03
2018-07-26T01:34:23.278Z,100995.36
2018-07-26T01:36:52.823Z,100993.55
2018-07-26T01:39:21.915Z,100993.80
2018-07-26T01:41:51.823Z,100981.23
2018-07-26T01:44:24.665Z,100990.41
2018-07-26T01:46:53.826Z,100999.57
2018-07-26T01:49:23.042Z,100998.73
2018-07-26T01:51:52.180Z,101001.27
2018-07-26T01:54:21.328Z,101000.28
2018-07-26T01:56:50.536Z,101001.61
2018-07-26T01:59:19.645Z,101001.88
2018-07-26T02:01:48.873Z,100995.96
2018-07-26T02:04:18.033Z,100993.05
2018-07-26T02:06:47.164Z,100991.38
2018-07-26T02:09:16.410Z,100993.91
2018-07-26T02:11:45.548Z,100996.56
2018-07-26T02:14:20.159Z,100997.77
2018-07-26T02:16:49.274Z,100991.25
2018-07-26T02:19:18.554Z,100990.38
2018-07-26T02:21:47.720Z,100985.81
2018-07-26T02:24:16.951Z,100987.36
2018-07-26T02:26:46.110Z,100988.91
2018-07-26T02:29:15.374Z,100989.17
2018-07-26T02:31:44.547Z,100990.13
2018-07-26T02:34:13.649Z,100992.54
2018-07-26T02:36:42.932Z,100989.41
2018-07-26T02:39:12.108Z,100990.36
2018-07-26T02:41:41.302Z,100993.23
2018-07-26T02:44:10.479Z,100992.27
2018-07-26T02:46:39.613Z,100991.66
2018-07-26T02:49:08.768Z,100995.75
2018-07-26T02:51:38.050Z,100990.78
2018-07-26T02:54:07.255Z,100995.72
2018-07-26T02:56:36.438Z,100996.95
2018-07-26T02:59:05.639Z,100993.91
2018-07-26T03:01:34.776Z,100997.05
2018-07-26T03:04:03.940Z,100993.13
2018-07-26T03:06:33.136Z,100998.56
2018-07-26T03:09:02.266Z,100992.74
2018-07-26T03:11:31.536Z,100990.22
2018-07-26T03:14:00.684Z,100990.22
2018-07-26T03:16:29.929Z,100994.92
2018-07-26T03:18:59.064Z,100998.52
2018-07-26T03:21:28.296Z,100996.47
2018-07-26T03:23:57.497Z,100995.39
2018-07-26T03:26:26.848Z,100993.09
2018-07-26T03:28:56.156Z,100995.10
2018-07-26T03:31:25.314Z,101000.16
2018-07-26T03:33:54.498Z,100999.90
2018-07-26T03:36:23.655Z,100998.34
2018-07-26T03:38:52.928Z,100999.08
2018-07-26T03:41:22.055Z,100999.42
2018-07-26T03:43:51.209Z,100995.06
2018-07-26T03:46:20.388Z,100990.23
2018-07-26T03:48:49.562Z,101001.56
2018-07-26T03:51:18.823Z,100995.66
2018-07-26T03:53:47.938Z,101005.41
2018-07-26T03:56:17.097Z,101003.09
2018-07-26T03:58:46.338Z,101005.06
2018-07-26T04:01:15.601Z,101004.47
2018-07-26T04:03:44.582Z,101001.81
2018-07-26T04:06:13.774Z,101001.56
2018-07-26T04:08:42.913Z,101008.06
2018-07-26T04:11:12.217Z,100998.70
2018-07-26T04:13:41.413Z,100997.50
2018-07-26T04:16:10.566Z,101000.75
2018-07-26T04:18:39.778Z,101003.06
2018-07-26T04:21:09.009Z,101004.00
2018-07-26T04:23:38.154Z,100998.01
2018-07-26T04:26:07.324Z,101001.98
2018-07-26T04:28:36.652Z,101003.19
2018-07-26T04:31:05.880Z,101004.17
2018-07-26T04:33:35.046Z,101004.77
2018-07-26T04:36:04.319Z,101001.94
2018-07-26T04:38:33.450Z,101009.05
2018-07-26T04:41:02.713Z,101011.89
2018-07-26T04:43:31.913Z,101010.02
2018-07-26T04:46:01.052Z,101008.72
2018-07-26T04:48:30.312Z,101007.20
2018-07-26T04:50:59.438Z,101005.25
2018-07-26T04:53:28.792Z,101003.46
2018-07-26T04:55:57.928Z,101003.11
2018-07-26T04:58:27.380Z,101002.99
2018-07-26T05:00:56.724Z,101009.77
2018-07-26T05:03:26.839Z,101012.17
2018-07-26T05:05:56.043Z,101009.84
2018-07-26T05:08:25.234Z,101010.46
2018-07-26T05:10:54.367Z,101012.75
2018-07-26T05:13:23.526Z,101010.25
2018-07-26T05:15:52.688Z,101007.97
2018-07-26T05:18:21.936Z,101015.42
2018-07-26T05:20:51.091Z,101019.21
2018-07-26T05:23:20.371Z,101020.89
2018-07-26T05:25:49.519Z,101012.33
2018-07-26T05:28:18.735Z,101013.23
2018-07-26T05:30:47.916Z,101010.42
2018-07-26T05:33:17.135Z,101009.80
2018-07-26T05:35:46.295Z,101014.48
2018-07-26T05:38:17.693Z,101017.91
2018-07-26T05:40:46.887Z,101018.14
2018-07-26T05:43:16.186Z,101018.11
2018-07-26T05:45:45.444Z,101013.61
2018-07-26T05:48:14.615Z,101012.67
2018-07-26T05:50:43.754Z,101014.58
2018-07-26T05:53:12.935Z,101019.36
2018-07-26T05:55:42.147Z,101014.09
2018-07-26T05:58:11.304Z,101014.53
2018-07-26T06:00:40.442Z,101020.72
2018-07-26T06:03:09.737Z,101023.78
2018-07-26T06:05:38.961Z,101023.53
2018-07-26T06:08:08.178Z,101025.52
2018-07-26T06:10:37.367Z,101024.11
2018-07-26T06:13:06.791Z,101026.33
2018-07-26T06:15:36.062Z,101027.98
2018-07-26T06:18:05.243Z,101024.69
2018-07-26T06:20:34.521Z,101023.81
2018-07-26T06:23:03.655Z,101022.24
2018-07-26T06:25:32.908Z,101024.06
2018-07-26T06:28:02.304Z,101030.33
2018-07-26T06:30:31.433Z,101023.05
2018-07-26T06:33:00.706Z,101015.47
2018-07-26T06:35:29.835Z,101013.62
2018-07-26T06:37:59.124Z,101016.77
2018-07-26T06:40:28.292Z,101013.47
2018-07-26T06:42:59.344Z,101012.19
2018-07-26T06:45:28.608Z,101021.54
2018-07-26T06:47:57.710Z,101018.78
2018-07-26T06:50:26.904Z,101020.89
2018-07-26T06:52:56.127Z,101021.70
2018-07-26T06:55:25.286Z,101021.63
2018-07-26T06:57:54.411Z,101017.77
2018-07-26T07:00:23.754Z,101021.45
2018-07-26T07:02:53.073Z,101024.22
2018-07-26T07:05:22.290Z,101019.45
2018-07-26T07:07:51.246Z,101022.09
2018-07-26T07:10:20.458Z,101020.70
2018-07-26T07:12:49.615Z,101021.42
2018-07-26T07:15:19.120Z,101013.14
2018-07-26T07:17:48.324Z,101021.30
2018-07-26T07:20:17.502Z,101015.16
2018-07-26T07:22:46.756Z,101010.63
2018-07-26T07:25:16.021Z,101012.83
2018-07-26T07:27:45.269Z,101008.94
2018-07-26T07:30:18.074Z,101009.95
2018-07-26T07:32:47.215Z,101006.41
2018-07-26T07:35:16.482Z,101009.42
2018-07-26T07:37:45.718Z,101005.95
2018-07-26T07:40:14.988Z,101007.41
2018-07-26T07:42:44.099Z,101010.66
2018-07-26T07:45:13.420Z,101008.12
2018-07-26T07:47:42.674Z,101012.81
2018-07-26T07:50:11.867Z,101013.43
2018-07-26T07:52:41.140Z,101009.87
2018-07-26T07:55:11.438Z,101014.19
2018-07-26T07:57:40.690Z,100996.81
2018-07-26T08:00:10.436Z,101006.24
2018-07-26T08:02:39.599Z,101000.77
2018-07-26T08:05:08.726Z,101005.06
2018-07-26T08:07:37.950Z,100999.63
2018-07-26T08:10:09.682Z,100994.89
2018-07-26T08:12:39.118Z,100990.62
2018-07-26T08:15:09.696Z,100996.03
2018-07-26T08:17:38.926Z,100993.84
2018-07-26T08:20:09.369Z,100996.33
2018-07-26T08:22:38.416Z,100992.69
2018-07-26T08:25:08.543Z,100993.27
2018-07-26T08:27:37.683Z,100995.19
2018-07-26T08:30:09.996Z,100993.81
2018-07-26T08:32:39.257Z,100994.33
2018-07-26T08:35:08.495Z,100993.30
2018-07-26T08:37:37.663Z,100996.65
2018-07-26T08:40:06.987Z,100995.94
2018-07-26T08:42:36.875Z,100991.04
2018-07-26T08:45:06.102Z,100992.59
2018-07-26T08:47:35.270Z,100992.63
2018-07-26T08:50:05.639Z,100992.55
2018-07-26T08:52:34.861Z,100993.12
2018-07-26T08:55:04.011Z,100988.42
2018-07-26T08:57:33.458Z,100990.27
2018-07-26T09:00:02.701Z,100988.94
2018-07-26T09:02:31.912Z,100986.83
2018-07-26T09:05:01.124Z,100989.55
2018-07-26T09:07:30.352Z,100986.89
2018-07-26T09:09:59.639Z,100986.13
2018-07-26T09:12:28.886Z,100984.63
2018-07-26T09:14:58.115Z,100983.64
2018-07-26T09:17:33.995Z,100987.34
2018-07-26T09:20:03.294Z,100982.51
2018-07-26T09:22:32.619Z,100989.61
2018-07-26T09:25:01.808Z,100981.64
2018-07-26T09:27:30.998Z,100982.69
2018-07-26T09:30:00.222Z,100977.97
2018-07-26T09:32:29.463Z,100977.97
2018-07-26T09:34:58.701Z,100981.78
2018-07-26T09:37:27.863Z,100971.41
2018-07-26T09:39:57.058Z,100964.04
2018-07-26T09:42:26.215Z,100972.20
2018-07-26T09:44:55.352Z,100966.81
2018-07-26T09:47:24.592Z,100965.47
2018-07-26T09:49:53.716Z,100961.75
2018-07-26T09:52:22.863Z,100962.58
2018-07-26T09:54:52.009Z,100952.77
2018-07-26T09:57:21.175Z,100950.77
2018-07-26T09:59:50.321Z,100948.42
2018-07-26T10:02:19.464Z,100949.27
2018-07-26T10:04:48.631Z,100952.52
2018-07-26T10:07:17.794Z,100950.55
2018-07-26T10:09:46.918Z,100952.41
2018-07-26T10:12:16.237Z,100949.41
2018-07-26T10:14:45.427Z,100945.37
2018-07-26T10:17:14.547Z,100940.85
2018-07-26T10:19:43.835Z,100936.55
2018-07-26T10:22:12.975Z,100946.85
2018-07-26T10:24:42.186Z,100952.45
2018-07-26T10:27:11.329Z,100940.77
2018-07-26T10:29:40.462Z,100947.95
2018-07-26T10:32:09.744Z,100940.33
2018-07-26T10:34:39.083Z,100946.17
2018-07-26T10:37:08.271Z,100944.98
2018-07-26T10:39:37.416Z,100937.95
2018-07-26T10:42:06.591Z,100938.20
2018-07-26T10:44:35.791Z,100934.88
2018-07-26T10:47:05.020Z,100926.94
2018-07-26T10:49:34.218Z,100924.19
2018-07-26T10:52:03.354Z,100921.17
2018-07-26T10:54:32.558Z,100925.11
2018-07-26T10:57:01.828Z,100919.41
2018-07-26T10:59:30.956Z,100918.11
2018-07-26T11:02:00.192Z,100919.61
2018-07-26T11:04:29.420Z,100907.64
2018-07-26T11:06:58.531Z,100913.30
2018-07-26T11:09:27.759Z,100912.31
2018-07-26T11:11:56.913Z,100913.66
2018-07-26T11:14:26.048Z,100900.66
2018-07-26T11:16:55.204Z,100909.88
2018-07-26T11:19:24.347Z,100908.63
2018-07-26T11:21:53.482Z,100909.67
2018-07-26T11:24:22.615Z,100907.76
2018-07-26T11:26:51.803Z,100907.29
2018-07-26T11:29:21.516Z,100900.84
2018-07-26T11:31:50.634Z,100906.31
2018-07-26T11:34:20.429Z,100897.55
2018-07-26T11:36:49.527Z,100894.37
2018-07-26T11:39:18.723Z,100888.77
2018-07-26T11:41:47.907Z,100887.36
2018-07-26T11:44:17.062Z,100900.24
2018-07-26T11:46:46.239Z,100891.22
2018-07-26T11:49:15.526Z,100890.31
2018-07-26T11:51:44.680Z,100895.81
2018-07-26T11:54:13.919Z,100888.67
2018-07-26T11:56:43.035Z,100875.00
2018-07-26T11:59:12.212Z,100872.70
2018-07-26T12:01:41.590Z,100865.84
2018-07-26T12:04:10.639Z,100869.05
2018-07-26T12:06:39.782Z,100866.58
2018-07-26T12:09:10.600Z,100862.32
2018-07-26T12:11:40.362Z,100866.77
2018-07-26T12:14:10.378Z,100853.17
2018-07-26T12:16:39.579Z,100860.93
2018-07-26T12:19:08.879Z,100850.45
2018-07-26T12:21:38.078Z,100844.86
2018-07-26T12:24:07.286Z,100853.34
2018-07-26T12:26:36.472Z,100844.59
2018-07-26T12:29:05.602Z,100841.92
2018-07-26T12:31:34.763Z,100837.98
2018-07-26T12:34:03.904Z,100837.11
2018-07-26T12:36:33.482Z,100840.72
2018-07-26T12:39:02.619Z,100835.12
2018-07-26T12:41:31.838Z,100832.30
2018-07-26T12:44:00.924Z,100829.17
2018-07-26T12:46:30.049Z,100824.52
2018-07-26T12:48:59.191Z,100826.27
2018-07-26T12:51:28.346Z,100818.93
2018-07-26T12:53:57.591Z,100816.75
2018-07-26T12:56:26.873Z,100809.36
2018-07-26T12:58:56.215Z,100803.09
2018-07-26T13:01:26.592Z,100798.16
2018-07-26T13:03:56.785Z,100807.26
2018-07-26T13:06:26.606Z,100799.03
2018-07-26T13:08:56.600Z,100794.06
2018-07-26T13:11:25.754Z,100795.19
2018-07-26T13:13:55.016Z,100796.39
2018-07-26T13:16:24.547Z,100795.11
2018-07-26T13:18:53.697Z,100795.35
2018-07-26T13:21:22.852Z,100792.10
2018-07-26T13:23:52.140Z,100792.52
2018-07-26T13:26:21.399Z,100787.82
2018-07-26T13:28:50.561Z,100794.33
2018-07-26T13:31:19.811Z,100787.24
2018-07-26T13:33:48.953Z,100788.36
2018-07-26T13:36:18.107Z,100794.40
2018-07-26T13:38:47.295Z,100781.48
2018-07-26T13:41:16.466Z,100789.86
2018-07-26T13:43:45.663Z,100781.27
2018-07-26T13:46:14.894Z,100781.91
2018-07-26T13:48:44.064Z,100785.27
2018-07-26T13:51:13.348Z,100783.97
2018-07-26T13:53:42.775Z,100779.11
2018-07-26T13:56:12.443Z,100773.28
2018-07-26T13:58:41.881Z,100775.86
2018-07-26T14:01:11.236Z,100771.84
2018-07-26T14:03:40.407Z,100779.06
2018-07-26T14:06:09.721Z,100785.23
2018-07-26T14:08:38.918Z,100782.09
2018-07-26T14:11:08.105Z,100778.59
2018-07-26T14:13:37.272Z,100775.77
2018-07-26T14:16:06.602Z,100768.78
2018-07-26T14:18:35.774Z,100766.05
2018-07-26T14:21:04.916Z,100762.02
2018-07-26T14:23:38.567Z,100765.97
2018-07-26T14:26:10.069Z,100772.66
2018-07-26T14:28:39.332Z,100764.22
2018-07-26T14:31:08.996Z,100768.07
2018-07-26T14:33:38.383Z,100764.38
2018-07-26T14:36:07.626Z,100761.95
2018-07-26T14:38:36.759Z,100760.75
2018-07-26T14:41:05.966Z,100760.73
2018-07-26T14:43:35.170Z,100755.52
2018-07-26T14:46:04.307Z,100751.97
2018-07-26T14:48:33.336Z,100749.91
2018-07-26T14:51:02.487Z,100751.48
2018-07-26T14:53:31.665Z,100752.35
2018-07-26T14:56:00.934Z,100756.51
2018-07-26T14:58:30.338Z,100748.16
2018-07-26T15:00:59.564Z,100755.86
2018-07-26T15:03:28.739Z,100754.84
2018-07-26T15:05:57.950Z,100751.86
2018-07-26T15:08:27.121Z,100752.38
2018-07-26T15:10:56.337Z,100748.94
2018-07-26T15:13:25.574Z,100750.96
2018-07-26T15:15:54.837Z,100752.59
2018-07-26T15:18:24.092Z,100749.28
2018-07-26T15:20:53.451Z,100747.02
2018-07-26T15:23:22.745Z,100740.92
2018-07-26T15:25:51.944Z,100744.07
2018-07-26T15:28:21.080Z,100742.28
2018-07-26T15:30:50.447Z,100743.79
2018-07-26T15:33:19.579Z,100745.36
2018-07-26T15:35:48.767Z,100743.89
2018-07-26T15:38:18.059Z,100749.39
2018-07-26T15:40:48.476Z,100777.13
2018-07-26T15:43:17.569Z,100768.45
2018-07-26T15:45:46.767Z,100770.79
2018-07-26T15:48:15.968Z,100753.06
2018-07-26T15:50:45.094Z,100746.39
2018-07-26T15:53:14.220Z,100756.70
2018-07-26T15:55:43.549Z,100755.79
2018-07-26T15:58:12.587Z,100753.14
2018-07-26T16:00:41.779Z,100746.56
2018-07-26T16:03:11.014Z,100736.90
2018-07-26T16:05:40.338Z,100739.25
2018-07-26T16:08:09.698Z,100737.41
2018-07-26T16:10:39.085Z,100727.87
2018-07-26T16:13:08.381Z,100731.53
2018-07-26T16:15:37.604Z,100725.84
2018-07-26T16:18:06.916Z,100721.08
2018-07-26T16:20:36.302Z,100719.91
2018-07-26T16:23:05.711Z,100726.77
2018-07-26T16:25:34.980Z,100719.55
2018-07-26T16:28:04.496Z,100713.50
2018-07-26T16:30:33.842Z,100718.77
2018-07-26T16:33:03.343Z,100712.30
2018-07-26T16:35:32.797Z,100709.30
2018-07-26T16:38:02.288Z,100712.94
2018-07-26T16:40:31.887Z,100713.84
2018-07-26T16:43:01.251Z,100707.30
2018-07-26T16:45:30.662Z,100715.22
2018-07-26T16:47:59.971Z,100709.01
2018-07-26T16:50:29.347Z,100705.84
2018-07-26T16:52:58.550Z,100707.47
2018-07-26T16:55:27.724Z,100704.38
2018-07-26T16:57:56.967Z,100709.59
2018-07-26T17:00:26.843Z,100710.08
2018-07-26T17:02:56.250Z,100702.34
2018-07-26T17:05:25.554Z,100703.31
2018-07-26T17:07:54.787Z,100709.56
2018-07-26T17:10:24.046Z,100708.56
2018-07-26T17:12:53.332Z,100705.98
2018-07-26T17:15:23.558Z,100713.80
2018-07-26T17:17:52.707Z,100711.90
2018-07-26T17:20:21.986Z,100705.56
2018-07-26T17:22:51.408Z,100712.19
2018-07-26T17:25:24.887Z,100708.22
2018-07-26T17:27:55.592Z,100714.94
2018-07-26T17:30:25.135Z,100713.92
2018-07-26T17:32:55.348Z,100711.32
2018-07-26T17:35:24.699Z,100715.53
2018-07-26T17:37:54.029Z,100720.25
2018-07-26T17:40:23.247Z,100719.14
2018-07-26T17:42:52.664Z,100704.95
2018-07-26T17:45:21.927Z,100714.65
2018-07-26T17:47:51.258Z,100704.77
2018-07-26T17:50:20.578Z,100715.27
2018-07-26T17:55:47.207Z,100715.52
2018-07-26T17:58:16.646Z,100727.63
2018-07-26T18:00:46.751Z,100726.41
2018-07-26T18:03:16.066Z,100723.50
2018-07-26T18:05:45.422Z,100731.42
2018-07-26T18:08:14.931Z,100740.89
2018-07-26T18:10:44.323Z,100745.16
2018-07-26T18:13:13.561Z,100745.25
2018-07-26T18:15:42.936Z,100749.25
2018-07-26T18:18:12.124Z,100766.18
2018-07-26T18:20:41.446Z,100768.67
2018-07-26T18:23:10.774Z,100771.56
2018-07-26T18:25:40.322Z,100771.86
2018-07-26T18:28:09.570Z,100763.52
2018-07-26T18:30:39.086Z,100753.32
2018-07-26T18:33:08.485Z,100748.18
2018-07-26T18:35:37.666Z,100750.11
2018-07-26T18:38:07.126Z,100748.50
2018-07-26T18:40:36.431Z,100751.73
2018-07-26T18:43:05.657Z,100753.30
2018-07-26T18:45:34.906Z,100757.03
2018-07-26T18:48:04.222Z,100764.67
2018-07-26T18:50:33.612Z,100755.29
2018-07-26T18:53:02.812Z,100760.36
2018-07-26T18:55:32.068Z,100767.11
2018-07-26T18:58:01.263Z,100767.82
2018-07-26T19:00:30.439Z,100769.69
2018-07-26T19:03:00.737Z,100770.41
2018-07-26T19:05:30.025Z,100765.89
2018-07-26T19:07:59.292Z,100777.16
2018-07-26T19:10:28.628Z,100782.70
2018-07-26T19:12:57.867Z,100791.45
2018-07-26T19:15:27.187Z,100791.61
2018-07-26T19:17:57.423Z,100799.84
2018-07-26T19:20:26.573Z,100793.80
2018-07-26T19:22:55.759Z,100799.53
2018-07-26T19:25:25.063Z,100792.48
2018-07-26T19:27:54.208Z,100792.83
2018-07-26T19:30:23.726Z,100790.34
2018-07-26T19:32:53.032Z,100794.72
2018-07-26T19:35:22.375Z,100793.23
2018-07-26T19:37:51.743Z,100795.07
2018-07-26T19:40:20.842Z,100800.63
2018-07-26T19:42:50.159Z,100799.23
2018-07-26T19:45:19.449Z,100805.47
2018-07-26T19:47:48.735Z,100805.12
2018-07-26T19:50:17.951Z,100811.01
2018-07-26T19:52:47.312Z,100811.86
2018-07-26T19:55:16.655Z,100811.84
2018-07-26T19:57:45.952Z,100807.15
2018-07-26T20:00:15.296Z,100811.02
2018-07-26T20:02:44.574Z,100810.83
2018-07-26T20:05:13.964Z,100811.86
2018-07-26T20:07:43.192Z,100809.32
2018-07-26T20:10:13.645Z,100807.98
2018-07-26T20:12:42.906Z,100817.73
2018-07-26T20:15:12.082Z,100814.34
2018-07-26T20:17:42.168Z,100811.34
2018-07-26T20:20:12.194Z,100805.97
2018-07-26T20:22:41.802Z,100812.63
2018-07-26T20:25:11.166Z,100804.89
2018-07-26T20:27:40.549Z,100810.27
2018-07-26T20:30:10.833Z,100806.23
2018-07-26T20:32:40.083Z,100804.58
2018-07-26T20:35:09.727Z,100806.91
2018-07-26T20:37:39.021Z,100804.90
